Time;durP1;ratioP1;P1;durP2;ratioP2;P2;SDS_P1;SDS_P2;PMS_P1;PMS_P2;Temp;Humidity;BMP_temperature;BMP_pressure;BME280_temperature;BME280_humidity;BME280_pressure;Samples;Min_cycle;Max_cycle;Signal;HPM_P1;HPM_P2
2021/12/17 00:00:27;;;;;;;14.77;8.53;;;5.70;99.90;;;;;;5098369;28;20479;-82
2021/12/17 00:05:20;;;;;;;17.00;9.03;;;5.70;99.90;;;;;;5116058;28;20430;-82
2021/12/17 00:07:46;;;;;;;18.43;8.70;;;5.80;99.90;;;;;;5098092;28;20028;-82
2021/12/17 00:10:18;;;;;;;18.03;9.53;;;5.70;99.90;;;;;;5098006;28;20076;-82
2021/12/17 00:12:45;;;;;;;16.10;7.93;;;5.80;99.90;;;;;;5096949;28;20036;-82
2021/12/17 00:15:11;;;;;;;18.70;8.40;;;5.80;99.90;;;;;;5097593;28;20388;-81
2021/12/17 00:17:47;;;;;;;14.73;8.03;;;5.80;99.90;;;;;;5097604;28;20023;-82
2021/12/17 00:40:22;;;;;;;15.70;8.00;;;5.80;99.90;;;;;;5115586;28;20034;-82
2021/12/17 00:53:20;;;;;;;18.80;8.57;;;6.00;99.90;;;;;;5115595;28;20028;-82
2021/12/17 00:55:46;;;;;;;19.30;9.13;;;6.00;99.90;;;;;;5097006;28;20108;-82
2021/12/17 00:58:12;;;;;;;23.10;9.47;;;6.10;99.90;;;;;;5097536;28;20024;-82
2021/12/17 01:00:38;;;;;;;17.93;7.97;;;6.00;99.90;;;;;;5097022;28;20119;-82
2021/12/17 01:03:04;;;;;;;15.43;8.30;;;6.10;99.90;;;;;;5097147;28;20036;-82
2021/12/17 01:05:30;;;;;;;14.07;7.90;;;6.10;99.90;;;;;;5096890;28;20536;-82
2021/12/17 01:07:58;;;;;;;16.67;9.17;;;6.10;99.90;;;;;;5097571;28;20040;-82
2021/12/17 01:10:31;;;;;;;17.57;9.13;;;6.10;99.90;;;;;;5096989;28;20053;-82
2021/12/17 01:12:57;;;;;;;16.43;8.00;;;6.20;99.90;;;;;;5096335;28;20065;-82
2021/12/17 01:15:25;;;;;;;14.43;7.67;;;6.20;99.90;;;;;;5097183;28;20035;-82
2021/12/17 01:17:55;;;;;;;17.93;8.93;;;6.10;99.90;;;;;;5115060;28;20380;-82
2021/12/17 01:20:34;;;;;;;15.90;8.20;;;6.10;99.90;;;;;;5097369;28;20073;-82
2021/12/17 01:36:26;;;;;;;17.63;8.83;;;6.10;99.90;;;;;;5114943;28;20081;-82
2021/12/17 01:43:56;;;;;;;17.33;8.67;;;6.20;99.90;;;;;;5114716;28;20039;-81
2021/12/17 01:46:28;;;;;;;15.27;8.57;;;6.20;99.90;;;;;;5096876;28;20131;-82
2021/12/17 01:59:49;;;;;;;19.10;8.10;;;6.20;99.90;;;;;;5062406;28;20054;-82
2021/12/17 02:02:15;;;;;;;13.70;7.70;;;6.20;99.90;;;;;;5095989;28;20026;-82
2021/12/17 02:04:43;;;;;;;15.90;7.87;;;6.30;99.90;;;;;;5095817;28;20159;-82
2021/12/17 02:07:09;;;;;;;16.80;8.13;;;6.20;99.90;;;;;;5096556;28;20028;-82
2021/12/17 02:12:32;;;;;;;16.60;8.13;;;6.20;99.90;;;;;;5114434;28;20066;-81
2021/12/17 02:32:03;;;;;;;13.80;7.30;;;6.30;99.90;;;;;;5113787;28;20031;-82
2021/12/17 02:37:33;;;;;;;15.73;8.43;;;6.30;99.90;;;;;;5099852;28;20027;-82
2021/12/17 02:45:32;;;;;;;17.23;7.87;;;6.40;99.90;;;;;;5114146;28;20039;-82
2021/12/17 02:48:10;;;;;;;16.37;7.93;;;6.40;99.90;;;;;;5113910;28;20487;-82
2021/12/17 02:50:40;;;;;;;18.57;7.77;;;6.40;99.90;;;;;;5095363;28;20035;-81
2021/12/17 02:53:10;;;;;;;15.97;8.20;;;6.40;99.90;;;;;;5097392;28;20031;-82
2021/12/17 02:55:38;;;;;;;18.80;8.37;;;6.40;99.90;;;;;;5117545;28;20110;-82
2021/12/17 02:58:05;;;;;;;19.20;8.50;;;6.40;99.90;;;;;;5099566;28;20034;-82
2021/12/17 03:00:32;;;;;;;15.27;8.30;;;6.40;99.90;;;;;;5099591;28;20027;-81
2021/12/17 03:02:59;;;;;;;13.53;7.73;;;6.40;99.90;;;;;;5099985;28;20042;-82
2021/12/17 03:05:26;;;;;;;14.23;8.07;;;6.40;99.90;;;;;;5099517;28;20058;-82
2021/12/17 03:07:52;;;;;;;18.20;9.20;;;6.40;99.90;;;;;;5099529;28;20028;-82
2021/12/17 03:10:18;;;;;;;16.10;7.90;;;6.40;99.90;;;;;;5099439;28;20118;-81
2021/12/17 03:12:51;;;;;;;15.90;8.20;;;6.40;99.90;;;;;;5098516;28;20396;-82
2021/12/17 03:26:01;;;;;;;13.90;8.05;;;6.40;99.90;;;;;;5117518;28;20465;-82
2021/12/17 03:28:27;;;;;;;17.27;8.53;;;6.30;99.90;;;;;;5094228;28;20377;-82
2021/12/17 03:30:53;;;;;;;17.37;8.73;;;6.30;99.90;;;;;;5078539;28;20580;-82
2021/12/17 03:33:20;;;;;;;16.53;8.53;;;6.30;99.90;;;;;;5088174;28;20027;-82
2021/12/17 03:35:46;;;;;;;15.27;8.17;;;6.30;99.90;;;;;;5098672;28;20030;-82
2021/12/17 03:38:12;;;;;;;15.37;8.27;;;6.30;99.90;;;;;;5099179;28;20114;-81
2021/12/17 03:40:40;;;;;;;16.13;8.30;;;6.30;99.90;;;;;;5117023;28;20460;-82
2021/12/17 03:43:12;;;;;;;18.17;8.53;;;6.30;99.90;;;;;;5098981;28;20082;-82
2021/12/17 03:45:41;;;;;;;16.73;8.23;;;6.30;99.90;;;;;;5098879;28;20460;-82
2021/12/17 03:48:08;;;;;;;15.40;8.50;;;6.30;99.90;;;;;;5099126;28;20027;-82
2021/12/17 03:50:36;;;;;;;16.60;8.43;;;6.30;99.90;;;;;;5098748;28;20460;-82
2021/12/17 03:53:04;;;;;;;15.67;8.40;;;6.30;99.90;;;;;;5098689;28;20023;-82
2021/12/17 03:55:29;;;;;;;14.30;7.87;;;6.30;99.90;;;;;;5116749;28;20058;-82
2021/12/17 03:57:58;;;;;;;15.63;8.17;;;6.30;99.90;;;;;;5098029;28;20051;-82
2021/12/17 04:00:24;;;;;;;18.23;8.43;;;6.40;99.90;;;;;;5098880;28;20452;-82
2021/12/17 04:02:50;;;;;;;14.90;7.70;;;6.40;99.90;;;;;;5097575;28;20035;-81
2021/12/17 04:05:16;;;;;;;17.77;8.50;;;6.40;99.90;;;;;;5115769;28;20030;-82
2021/12/17 04:07:41;;;;;;;17.00;8.37;;;6.40;99.90;;;;;;5098358;28;20024;-82
2021/12/17 04:10:07;;;;;;;15.50;8.70;;;6.40;99.90;;;;;;5098256;28;20034;-82
2021/12/17 04:12:52;;;;;;;15.33;8.13;;;6.40;99.90;;;;;;5116163;28;20476;-81
2021/12/17 04:15:18;;;;;;;17.17;8.20;;;6.40;99.90;;;;;;5116521;28;20464;-82
2021/12/17 04:17:52;;;;;;;17.47;9.47;;;6.40;99.90;;;;;;5097855;28;20030;-81
2021/12/17 04:20:17;;;;;;;15.17;8.20;;;6.40;99.90;;;;;;5116808;28;20020;-82
2021/12/17 04:22:43;;;;;;;17.33;8.57;;;6.40;99.90;;;;;;5115886;28;20042;-81
2021/12/17 04:25:09;;;;;;;18.40;8.73;;;6.50;99.90;;;;;;5116149;28;20034;-82
2021/12/17 04:27:34;;;;;;;17.30;7.97;;;6.50;99.90;;;;;;5098421;28;20024;-82
2021/12/17 04:30:00;;;;;;;17.60;8.17;;;6.50;99.90;;;;;;5096589;28;20026;-82
2021/12/17 04:32:26;;;;;;;15.57;8.53;;;6.50;99.90;;;;;;5079293;28;20032;-82
2021/12/17 04:34:52;;;;;;;16.93;8.63;;;6.50;99.90;;;;;;5115473;28;20456;-82
2021/12/17 04:37:18;;;;;;;15.67;8.33;;;6.50;99.90;;;;;;5115774;28;20024;-81
2021/12/17 04:39:44;;;;;;;16.00;8.03;;;6.40;99.90;;;;;;5097638;28;20452;-82
2021/12/17 04:42:36;;;;;;;19.87;8.50;;;6.50;99.90;;;;;;5115805;28;20035;-82
2021/12/17 04:44:59;;;;;;;16.43;8.30;;;6.50;99.90;;;;;;5114486;28;20031;-82
2021/12/17 04:58:22;;;;;;;16.50;8.23;;;6.50;99.90;;;;;;5115277;28;20045;-82
2021/12/17 05:00:47;;;;;;;15.57;8.53;;;6.50;99.90;;;;;;5097664;28;20027;-82
2021/12/17 05:03:13;;;;;;;18.67;8.37;;;6.50;99.90;;;;;;5097706;28;20119;-82
2021/12/17 05:05:39;;;;;;;17.60;8.23;;;6.50;99.90;;;;;;5114898;28;20106;-82
2021/12/17 05:08:11;;;;;;;14.63;8.17;;;6.50;99.90;;;;;;5097760;28;20023;-82
2021/12/17 05:21:32;;;;;;;15.57;8.30;;;6.60;99.90;;;;;;5115838;28;20037;-82
2021/12/17 05:23:58;;;;;;;19.20;9.17;;;6.60;99.90;;;;;;5096612;28;20040;-82
2021/12/17 05:26:24;;;;;;;17.70;8.57;;;6.60;99.90;;;;;;5097219;28;20055;-81
2021/12/17 05:28:51;;;;;;;17.53;8.80;;;6.60;99.90;;;;;;5096547;28;20430;-82
2021/12/17 05:31:21;;;;;;;21.40;9.07;;;6.60;99.90;;;;;;5114770;28;20024;-82
2021/12/17 05:33:48;;;;;;;18.20;9.20;;;6.60;99.90;;;;;;5095984;28;20456;-82
2021/12/17 05:36:14;;;;;;;17.70;8.13;;;6.60;99.90;;;;;;5096706;28;20052;-82
2021/12/17 05:38:39;;;;;;;17.20;8.60;;;6.60;99.90;;;;;;5096438;28;20091;-81
2021/12/17 05:41:05;;;;;;;16.27;8.77;;;6.60;99.90;;;;;;5114835;28;20139;-82
2021/12/17 05:43:37;;;;;;;16.90;8.83;;;6.60;99.90;;;;;;5115039;28;20039;-82
2021/12/17 05:46:12;;;;;;;20.00;9.65;;;6.60;99.90;;;;;;5096419;28;20031;-81
2021/12/17 05:48:40;;;;;;;17.00;8.57;;;6.60;99.90;;;;;;5096902;28;20035;-82
2021/12/17 05:51:10;;;;;;;16.57;8.13;;;6.70;99.90;;;;;;5096259;28;20024;-82
2021/12/17 05:53:36;;;;;;;15.83;8.23;;;6.70;99.90;;;;;;5096301;28;20042;-82
2021/12/17 05:56:02;;;;;;;17.20;8.57;;;6.70;99.90;;;;;;5095862;28;20487;-82
2021/12/17 05:58:29;;;;;;;16.43;8.90;;;6.70;99.90;;;;;;5096367;28;20020;-81
2021/12/17 06:00:55;;;;;;;16.40;8.80;;;6.70;99.90;;;;;;5096100;28;20020;-82
2021/12/17 06:03:23;;;;;;;18.20;9.27;;;6.70;99.90;;;;;;5096217;28;20035;-82
2021/12/17 06:05:49;;;;;;;16.90;8.73;;;6.70;99.90;;;;;;5113820;28;20054;-82
2021/12/17 06:08:15;;;;;;;14.93;7.87;;;6.70;99.90;;;;;;5096737;28;20024;-82
2021/12/17 06:10:41;;;;;;;17.57;8.17;;;6.70;99.90;;;;;;5114164;28;20035;-81
2021/12/17 06:13:06;;;;;;;15.90;8.27;;;6.70;99.90;;;;;;5113147;28;20484;-82
2021/12/17 06:15:32;;;;;;;14.93;7.93;;;6.80;99.90;;;;;;5096165;28;20028;-82
2021/12/17 06:17:58;;;;;;;18.80;8.60;;;6.80;99.90;;;;;;5110600;28;20658;-81
2021/12/17 06:20:24;;;;;;;15.13;7.80;;;6.70;99.90;;;;;;5083570;28;20028;-82
2021/12/17 06:22:51;;;;;;;16.10;8.03;;;6.70;99.90;;;;;;5104029;28;20047;-83
2021/12/17 06:25:17;;;;;;;18.00;8.90;;;6.70;99.90;;;;;;5084605;28;20051;-82
2021/12/17 06:27:43;;;;;;;16.83;8.20;;;6.80;99.90;;;;;;5088645;28;20452;-82
2021/12/17 06:30:12;;;;;;;16.93;8.53;;;6.80;99.90;;;;;;5094093;28;20444;-82
2021/12/17 06:32:38;;;;;;;20.10;9.37;;;6.80;99.90;;;;;;5093424;28;20392;-82
2021/12/17 06:35:05;;;;;;;16.67;8.87;;;6.80;99.90;;;;;;5092055;28;20019;-81
2021/12/17 06:37:31;;;;;;;17.87;8.87;;;6.80;99.90;;;;;;5108856;28;20034;-82
2021/12/17 06:39:58;;;;;;;14.20;7.63;;;6.70;99.90;;;;;;5108407;28;20095;-82
2021/12/17 06:42:26;;;;;;;16.33;7.90;;;6.70;99.90;;;;;;5092414;28;20024;-82
2021/12/17 06:44:56;;;;;;;16.13;8.40;;;6.70;99.90;;;;;;5108898;28;20028;-82
2021/12/17 06:47:31;;;;;;;15.47;8.43;;;6.80;99.90;;;;;;5090269;28;20052;-82
2021/12/17 06:54:36;;;;;;;15.07;7.53;;;6.80;99.90;;;;;;5107983;28;20020;-82
2021/12/17 06:56:00;;;;;;;14.97;7.77;;;6.80;99.90;;;;;;5108304;28;20077;-82
2021/12/17 07:07:01;;;;;;;14.20;6.87;;;6.80;99.90;;;;;;5110180;28;20039;-82
2021/12/17 07:17:30;;;;;;;14.17;6.60;;;6.80;99.90;;;;;;5096439;28;20045;-82
2021/12/17 07:22:43;;;;;;;11.33;6.47;;;6.80;99.90;;;;;;5120882;28;20034;-82
2021/12/17 07:33:44;;;;;;;13.63;6.30;;;6.80;99.90;;;;;;5110310;28;20038;-82
2021/12/17 07:36:13;;;;;;;13.53;6.27;;;6.80;99.90;;;;;;5120314;28;20023;-82
2021/12/17 07:38:50;;;;;;;13.93;6.67;;;6.90;99.90;;;;;;5100571;28;20494;-82
2021/12/17 07:41:17;;;;;;;11.53;6.40;;;6.90;99.90;;;;;;5099393;28;20028;-82
2021/12/17 07:43:54;;;;;;;11.13;5.97;;;6.90;99.90;;;;;;5117098;28;20114;-82
2021/12/17 07:46:21;;;;;;;10.17;5.70;;;6.90;99.90;;;;;;5098659;28;20032;-82
2021/12/17 07:48:47;;;;;;;12.40;5.70;;;6.90;99.90;;;;;;5098288;28;20024;-82
2021/12/17 07:51:16;;;;;;;10.53;4.60;;;6.90;99.90;;;;;;5098484;28;20019;-82
2021/12/17 07:53:42;;;;;;;9.13;5.33;;;6.90;99.90;;;;;;5098376;28;20024;-81
2021/12/17 07:56:10;;;;;;;8.67;5.10;;;6.90;99.90;;;;;;5116417;28;20020;-82
2021/12/17 07:58:36;;;;;;;8.80;5.17;;;6.90;99.90;;;;;;5116648;28;20085;-82
2021/12/17 08:01:03;;;;;;;9.33;4.77;;;7.00;99.90;;;;;;5098093;28;20027;-83
2021/12/17 08:03:29;;;;;;;9.00;4.93;;;7.00;99.90;;;;;;5116679;28;20036;-81
2021/12/17 08:05:55;;;;;;;7.83;4.37;;;7.00;99.90;;;;;;5098385;28;20035;-81
2021/12/17 08:08:21;;;;;;;7.87;4.47;;;7.00;99.90;;;;;;5098291;28;20016;-81
2021/12/17 08:10:47;;;;;;;6.90;4.37;;;7.00;99.90;;;;;;5096679;28;20026;-82
2021/12/17 08:13:20;;;;;;;9.40;4.60;;;7.00;99.90;;;;;;5085069;28;20051;-82
2021/12/17 08:15:51;;;;;;;8.57;4.63;;;7.10;99.90;;;;;;5085848;28;20020;-83
2021/12/17 08:23:46;;;;;;;8.93;4.70;;;7.10;99.90;;;;;;5106151;28;20502;-83
2021/12/17 08:26:21;;;;;;;8.70;5.40;;;7.10;99.90;;;;;;5104468;28;20024;-83
2021/12/17 08:31:19;;;;;;;9.18;4.32;;;7.10;99.90;;;;;;5106295;28;20050;-83
2021/12/17 08:33:45;;;;;;;11.47;5.47;;;7.10;99.90;;;;;;5086355;28;20136;-83
2021/12/17 08:36:11;;;;;;;11.50;5.60;;;7.20;99.90;;;;;;5096838;28;20024;-83
2021/12/17 08:38:37;;;;;;;11.97;5.97;;;7.20;99.90;;;;;;5077312;28;20533;-83
2021/12/17 08:41:03;;;;;;;10.27;5.25;;;7.10;99.90;;;;;;5077071;28;20032;-83
2021/12/17 08:43:29;;;;;;;10.37;5.30;;;7.10;99.90;;;;;;5098194;28;20487;-83
2021/12/17 08:45:54;;;;;;;9.63;5.63;;;7.10;99.90;;;;;;5097264;28;20035;-82
2021/12/17 08:48:20;;;;;;;10.77;5.20;;;7.10;99.90;;;;;;5098362;28;20107;-83
2021/12/17 08:50:46;;;;;;;10.13;5.27;;;7.10;99.90;;;;;;5097304;28;20027;-83
2021/12/17 08:53:11;;;;;;;7.27;4.60;;;7.10;99.90;;;;;;5096872;28;20157;-82
2021/12/17 08:55:37;;;;;;;9.23;5.37;;;7.10;99.90;;;;;;5097336;28;20027;-83
2021/12/17 08:58:04;;;;;;;11.63;5.30;;;7.10;99.90;;;;;;5114702;28;20065;-82
2021/12/17 09:00:30;;;;;;;8.77;5.27;;;7.00;99.90;;;;;;5097016;28;20384;-82
2021/12/17 09:02:59;;;;;;;11.15;5.97;;;6.90;99.90;;;;;;5114638;28;20031;-82
2021/12/17 09:05:25;;;;;;;8.40;4.97;;;7.00;99.90;;;;;;5115307;28;20030;-82
2021/12/17 09:07:51;;;;;;;13.47;5.93;;;7.00;99.90;;;;;;5096478;28;20019;-82
2021/12/17 09:10:21;;;;;;;10.50;5.30;;;7.00;99.90;;;;;;5115053;28;20034;-83
2021/12/17 09:12:48;;;;;;;10.90;5.27;;;7.00;99.90;;;;;;5114590;28;20033;-80
2021/12/17 09:15:14;;;;;;;8.97;4.77;;;7.10;99.90;;;;;;5096901;28;20024;-81
2021/12/17 09:17:40;;;;;;;7.60;4.43;;;7.20;99.90;;;;;;5096672;28;20039;-81
2021/12/17 09:20:06;;;;;;;7.60;4.47;;;7.20;99.90;;;;;;5114095;28;20027;-80
2021/12/17 09:22:33;;;;;;;8.43;4.55;;;7.20;99.90;;;;;;5093958;28;20340;-81
2021/12/17 09:24:58;;;;;;;8.03;4.50;;;7.20;99.90;;;;;;5086795;28;20416;-80
2021/12/17 09:27:24;;;;;;;8.37;4.30;;;7.20;99.90;;;;;;5085996;28;20024;-80
2021/12/17 09:29:50;;;;;;;8.57;4.45;;;7.30;99.90;;;;;;5084964;28;20453;-82
2021/12/17 09:32:15;;;;;;;8.03;4.43;;;7.30;99.90;;;;;;5102415;28;20016;-81
2021/12/17 09:34:41;;;;;;;8.52;4.53;;;7.30;99.90;;;;;;5104238;28;20034;-80
2021/12/17 09:37:07;;;;;;;7.72;4.65;;;7.30;99.90;;;;;;5102923;28;20024;-80
2021/12/17 09:39:32;;;;;;;8.63;4.32;;;7.30;99.90;;;;;;5086885;28;20020;-80
2021/12/17 09:41:58;;;;;;;7.45;4.50;;;7.40;99.90;;;;;;5083771;28;20453;-80
2021/12/17 09:44:24;;;;;;;7.53;4.43;;;7.30;99.90;;;;;;5085244;28;20460;-80
2021/12/17 09:46:50;;;;;;;6.63;4.10;;;7.30;99.90;;;;;;5085526;28;20027;-81
2021/12/17 09:49:17;;;;;;;7.95;4.65;;;7.40;99.90;;;;;;5102103;28;20103;-81
2021/12/17 09:51:45;;;;;;;8.05;4.50;;;7.40;99.90;;;;;;5085437;28;20023;-80
2021/12/17 09:54:11;;;;;;;7.33;4.13;;;7.40;99.90;;;;;;5084961;28;20028;-80
2021/12/17 09:56:37;;;;;;;9.95;5.35;;;7.40;99.90;;;;;;5083569;28;20027;-80
2021/12/17 09:59:03;;;;;;;8.20;3.92;;;7.40;99.90;;;;;;5082581;28;20460;-80
2021/12/17 10:01:29;;;;;;;5.30;3.78;;;7.50;99.90;;;;;;5083153;28;20100;-80
2021/12/17 10:04:24;;;;;;;6.60;4.00;;;7.50;99.90;;;;;;5103328;28;20459;-81
2021/12/17 10:06:50;;;;;;;8.43;4.13;;;7.50;99.90;;;;;;5103070;28;20108;-82
2021/12/17 10:09:16;;;;;;;6.85;3.60;;;7.60;99.90;;;;;;5086884;28;20027;-80
2021/12/17 10:12:02;;;;;;;6.45;3.75;;;7.60;99.90;;;;;;5082791;28;20020;-80
2021/12/17 10:14:28;;;;;;;8.85;4.43;;;7.60;99.90;;;;;;5084281;28;20043;-79
2021/12/17 10:17:09;;;;;;;9.05;4.22;;;7.60;99.90;;;;;;5085658;28;20069;-80
2021/12/17 10:19:50;;;;;;;7.38;4.20;;;7.70;99.90;;;;;;5083654;28;20082;-80
2021/12/17 10:22:18;;;;;;;6.53;3.85;;;7.80;99.90;;;;;;5096519;28;20514;-80
2021/12/17 10:24:55;;;;;;;7.78;4.13;;;7.80;99.90;;;;;;5106298;28;20106;-80
2021/12/17 10:27:27;;;;;;;7.90;4.03;;;7.80;99.90;;;;;;5101407;28;20046;-81
2021/12/17 10:29:53;;;;;;;;;;;7.80;99.90;;;;;;5103844;28;20333;-81
2021/12/17 10:32:21;;;;;;;7.10;3.85;;;7.90;99.90;;;;;;5085548;28;19900;-81
2021/12/17 10:35:06;;;;;;;7.75;4.13;;;7.90;99.90;;;;;;5084055;28;20034;-81
2021/12/17 10:37:34;;;;;;;6.57;4.30;;;8.00;99.90;;;;;;5072642;28;20032;-80
2021/12/17 10:40:12;;;;;;;6.35;4.13;;;8.00;99.90;;;;;;5074363;28;20020;-81
2021/12/17 10:42:40;;;;;;;6.88;3.88;;;8.00;99.90;;;;;;5093586;28;20032;-81
2021/12/17 10:45:12;;;;;;;8.68;4.45;;;8.10;99.90;;;;;;5095304;28;20034;-81
2021/12/17 10:47:46;;;;;;;7.45;4.13;;;8.10;99.90;;;;;;5095857;28;20357;-81
2021/12/17 10:50:11;;;;;;;7.00;4.40;;;8.00;99.90;;;;;;5113181;28;20066;-81
2021/12/17 10:52:44;;;;;;;8.25;4.60;;;8.10;99.90;;;;;;5112909;28;20059;-81
2021/12/17 10:55:16;;;;;;;8.52;4.15;;;8.10;99.90;;;;;;5095216;28;20019;-80
2021/12/17 10:57:45;;;;;;;8.77;4.78;;;8.10;99.90;;;;;;5095164;28;20027;-80
2021/12/17 11:00:11;;;;;;;8.63;4.53;;;8.30;99.90;;;;;;5094314;28;20259;-79
2021/12/17 11:02:37;;;;;;;7.85;4.40;;;8.20;99.90;;;;;;5095367;28;20388;-80
2021/12/17 11:05:13;;;;;;;8.07;4.28;;;8.30;99.90;;;;;;5112817;28;20023;-80
2021/12/17 11:07:43;;;;;;;7.53;4.57;;;8.40;99.90;;;;;;5095595;28;20031;-80
2021/12/17 11:10:09;;;;;;;8.60;4.72;;;8.40;99.90;;;;;;5094931;28;20032;-81
2021/12/17 11:12:35;;;;;;;7.18;4.20;;;8.40;99.90;;;;;;5094648;28;20105;-80
2021/12/17 11:15:24;;;;;;;9.52;5.00;;;8.40;99.90;;;;;;5112522;28;20101;-81
2021/12/17 11:18:05;;;;;;;8.00;4.40;;;8.50;99.90;;;;;;5083904;28;20024;-80
2021/12/17 11:20:36;;;;;;;10.05;4.15;;;8.50;99.90;;;;;;5078503;28;20031;-80
2021/12/17 11:23:10;;;;;;;6.72;4.20;;;8.60;99.90;;;;;;5078416;28;20028;-80
2021/12/17 11:25:39;;;;;;;9.90;4.25;;;8.60;99.90;;;;;;5096383;28;20051;-80
2021/12/17 11:28:07;;;;;;;7.95;4.40;;;8.60;99.90;;;;;;5078519;28;20039;-80
2021/12/17 11:30:36;;;;;;;6.30;4.13;;;8.60;99.70;;;;;;5078705;28;20482;-81
2021/12/17 11:33:04;;;;;;;7.40;4.25;;;8.70;99.90;;;;;;5084452;28;20503;-81
2021/12/17 11:35:31;;;;;;;8.90;4.38;;;8.70;99.50;;;;;;5116191;28;20027;-80
2021/12/17 11:38:03;;;;;;;7.35;4.20;;;8.80;99.90;;;;;;5116373;28;20031;-81
2021/12/17 11:40:31;;;;;;;8.38;4.40;;;8.80;99.40;;;;;;5098243;28;20024;-81
2021/12/17 11:43:28;;;;;;;7.35;4.50;;;8.80;99.40;;;;;;5098263;28;20071;-81
2021/12/17 11:46:14;;;;;;;7.25;3.92;;;8.80;99.10;;;;;;5116111;28;20026;-86
2021/12/17 11:48:50;;;;;;;8.68;4.55;;;8.80;99.30;;;;;;5098826;28;20030;-81
2021/12/17 11:51:18;;;;;;;11.85;4.85;;;8.80;99.70;;;;;;5098124;28;20456;-81
2021/12/17 11:54:06;;;;;;;9.30;4.97;;;8.90;99.60;;;;;;5098423;28;20115;-87
2021/12/17 11:57:08;;;;;;;10.70;4.85;;;8.90;99.40;;;;;;5097746;28;20053;-80
2021/12/17 11:59:43;;;;;;;6.80;4.50;;;8.90;99.20;;;;;;5098161;28;20020;-81
2021/12/17 12:02:23;;;;;;;7.43;4.00;;;8.90;99.10;;;;;;5098495;28;20031;-81
2021/12/17 12:04:54;;;;;;;6.97;3.97;;;8.90;99.50;;;;;;5098286;28;20063;-80
2021/12/17 12:07:23;;;;;;;7.53;4.50;;;8.90;99.70;;;;;;5098165;28;20085;-81
2021/12/17 12:10:01;;;;;;;7.57;4.30;;;9.00;99.70;;;;;;5098789;28;20028;-81
2021/12/17 12:12:40;;;;;;;6.80;4.22;;;9.20;99.70;;;;;;5097559;28;20056;-79
2021/12/17 12:15:24;;;;;;;7.75;4.43;;;9.10;99.50;;;;;;5094916;28;20082;-81
2021/12/17 12:18:15;;;;;;;9.90;4.90;;;9.10;99.30;;;;;;5076925;28;20455;-80
2021/12/17 12:20:50;;;;;;;8.50;4.65;;;9.20;99.30;;;;;;5095309;28;20065;-80
2021/12/17 12:23:28;;;;;;;8.27;5.05;;;9.60;99.10;;;;;;5095227;28;20032;-81
2021/12/17 12:26:08;;;;;;;6.70;3.78;;;9.80;98.20;;;;;;5077302;28;20051;-81
2021/12/17 12:28:46;;;;;;;6.55;3.70;;;9.90;97.80;;;;;;5082527;28;20017;-80
2021/12/17 12:31:24;;;;;;;7.05;3.80;;;9.90;97.80;;;;;;5056580;28;20474;-80
2021/12/17 12:36:50;;;;;;;6.45;3.95;;;9.90;97.80;;;;;;5092349;28;20036;-81
2021/12/17 12:39:23;;;;;;;5.63;3.72;;;9.80;97.50;;;;;;5076057;28;20624;-81
2021/12/17 12:41:58;;;;;;;6.40;3.58;;;9.90;97.80;;;;;;5076917;28;20032;-81
2021/12/17 12:44:39;;;;;;;6.13;3.45;;;9.90;97.80;;;;;;5077315;28;20038;-81
2021/12/17 12:47:07;;;;;;;9.23;3.67;;;9.80;97.60;;;;;;5076382;28;20036;-81
2021/12/17 12:49:49;;;;;;;6.38;4.00;;;9.70;97.70;;;;;;5060349;28;20024;-81
2021/12/17 12:52:41;;;;;;;6.05;4.07;;;9.80;97.50;;;;;;5064519;28;20032;-81
2021/12/17 12:55:29;;;;;;;6.82;3.80;;;9.90;97.60;;;;;;5070150;28;20024;-81
2021/12/17 12:58:11;;;;;;;6.28;3.63;;;9.90;97.30;;;;;;5094361;28;20496;-81
2021/12/17 13:00:50;;;;;;;5.35;3.33;;;10.00;96.90;;;;;;5076839;28;20023;-81
2021/12/17 13:03:18;;;;;;;5.95;3.63;;;9.90;97.40;;;;;;5076493;28;20035;-81
2021/12/17 13:05:47;;;;;;;7.10;3.83;;;9.90;97.20;;;;;;5076721;28;20032;-80
2021/12/17 13:08:14;;;;;;;5.22;3.40;;;10.10;97.10;;;;;;5076337;28;20122;-81
2021/12/17 13:10:49;;;;;;;7.85;4.10;;;10.20;96.80;;;;;;5094128;28;20085;-80
2021/12/17 13:13:22;;;;;;;9.30;3.80;;;10.30;96.30;;;;;;5082050;28;20064;-81
2021/12/17 13:21:46;;;;;;;6.22;3.70;;;10.60;96.20;;;;;;5114210;28;20027;-80
2021/12/17 13:24:19;;;;;;;8.10;3.45;;;10.60;96.30;;;;;;5102102;28;20072;-80
2021/12/17 13:26:53;;;;;;;4.65;3.25;;;10.60;96.00;;;;;;5075948;28;20081;-80
2021/12/17 13:29:23;;;;;;;6.97;3.58;;;10.70;96.00;;;;;;5106390;28;20038;-80
2021/12/17 13:31:51;;;;;;;6.32;3.35;;;10.80;95.70;;;;;;5095895;28;20027;-81
2021/12/17 13:34:36;;;;;;;5.38;3.28;;;10.90;95.70;;;;;;5095796;28;20234;-80
2021/12/17 13:37:10;;;;;;;5.97;3.28;;;11.00;95.60;;;;;;5094909;28;20046;-81
2021/12/17 13:39:51;;;;;;;4.53;3.00;;;10.90;94.70;;;;;;5079359;28;20477;-80
2021/12/17 13:42:19;;;;;;;4.95;3.05;;;10.80;95.20;;;;;;5108441;28;20034;-80
2021/12/17 13:44:50;;;;;;;5.80;3.00;;;10.70;95.90;;;;;;5114524;28;20124;-81
2021/12/17 13:47:21;;;;;;;5.38;3.25;;;10.60;95.90;;;;;;5095733;28;20042;-81
2021/12/17 13:49:53;;;;;;;5.10;3.50;;;10.60;95.80;;;;;;5096222;28;20507;-81
2021/12/17 13:52:20;;;;;;;;;;;10.50;96.20;;;;;;5095656;28;20133;-81
2021/12/17 13:54:48;;;;;;;5.47;3.13;;;10.50;96.20;;;;;;5088466;28;19907;-81
2021/12/17 13:57:17;;;;;;;5.30;3.13;;;10.50;96.40;;;;;;5094702;28;20024;-81
2021/12/17 13:59:45;;;;;;;6.07;3.53;;;10.30;96.40;;;;;;5092396;28;20023;-83
2021/12/17 14:02:19;;;;;;;5.85;4.05;;;10.40;96.50;;;;;;5095391;28;20030;-82
2021/12/17 14:05:05;;;;;;;6.22;3.38;;;10.30;96.70;;;;;;5075959;28;20040;-82
2021/12/17 14:07:32;;;;;;;7.78;3.63;;;10.30;96.80;;;;;;5075793;28;20034;-82
2021/12/17 14:10:21;;;;;;;6.65;3.90;;;10.20;96.80;;;;;;5075894;28;20020;-82
2021/12/17 14:12:48;;;;;;;5.85;3.72;;;10.00;96.80;;;;;;5075197;28;20023;-81
2021/12/17 14:15:17;;;;;;;5.80;3.53;;;10.00;97.10;;;;;;5093170;28;20024;-82
2021/12/17 14:17:46;;;;;;;11.38;4.28;;;9.90;97.30;;;;;;5093415;28;20020;-82
2021/12/17 14:20:13;;;;;;;9.52;3.90;;;9.90;97.40;;;;;;5075111;28;20024;-82
2021/12/17 14:22:44;;;;;;;7.78;4.43;;;9.80;97.40;;;;;;5093747;28;20526;-82
2021/12/17 14:25:28;;;;;;;6.57;4.18;;;9.80;97.60;;;;;;5093198;28;20105;-82
2021/12/17 14:27:56;;;;;;;6.20;3.80;;;9.80;97.40;;;;;;5076168;28;20020;-81
2021/12/17 14:30:32;;;;;;;6.65;4.18;;;9.70;97.70;;;;;;5095532;28;20047;-82
2021/12/17 14:32:59;;;;;;;7.13;3.75;;;9.60;97.70;;;;;;5095611;28;20016;-82
2021/12/17 14:35:45;;;;;;;7.47;3.97;;;9.50;98.00;;;;;;5082958;28;20024;-82
2021/12/17 14:38:12;;;;;;;7.03;4.18;;;9.50;98.00;;;;;;5081172;28;20097;-82
2021/12/17 14:40:50;;;;;;;6.57;3.92;;;9.40;98.30;;;;;;5075456;28;20020;-82
2021/12/17 14:43:25;;;;;;;5.93;3.50;;;9.40;98.30;;;;;;5093095;28;20044;-82
2021/12/17 14:45:54;;;;;;;7.03;4.18;;;9.40;98.40;;;;;;5093234;28;20036;-82
2021/12/17 14:48:29;;;;;;;9.65;4.47;;;9.30;98.60;;;;;;5075624;28;20110;-81
2021/12/17 15:04:40;;;;;;;4.93;2.95;;;9.20;98.80;;;;;;5054691;28;20025;-82
2021/12/17 15:07:06;;;;;;;6.57;3.08;;;9.20;98.70;;;;;;5065218;28;20123;-82
2021/12/17 15:09:33;;;;;;;8.05;3.70;;;9.20;98.70;;;;;;5099092;28;20495;-82
2021/12/17 15:12:01;;;;;;;5.00;3.17;;;9.10;98.90;;;;;;5098638;28;20023;-82
2021/12/17 15:14:26;;;;;;;6.15;3.40;;;9.10;98.90;;;;;;5115446;28;20056;-82
2021/12/17 15:16:53;;;;;;;6.03;3.25;;;9.10;99.00;;;;;;5117502;28;20024;-82
2021/12/17 15:19:19;;;;;;;5.35;3.38;;;9.10;99.00;;;;;;5115845;28;20050;-82
2021/12/17 15:21:45;;;;;;;5.82;3.33;;;9.00;99.20;;;;;;5098760;28;20461;-82
2021/12/17 15:24:11;;;;;;;5.35;3.30;;;9.00;99.10;;;;;;5117080;28;20027;-81
2021/12/17 15:26:38;;;;;;;5.88;3.20;;;9.00;99.20;;;;;;5099225;28;20053;-82
2021/12/17 15:29:04;;;;;;;5.35;3.15;;;9.00;99.20;;;;;;5098351;28;20020;-82
2021/12/17 15:31:29;;;;;;;5.22;3.00;;;9.00;99.20;;;;;;5098494;28;20023;-83
2021/12/17 15:33:55;;;;;;;6.50;3.45;;;9.00;99.20;;;;;;5098209;28;20019;-81
2021/12/17 15:36:21;;;;;;;5.68;3.13;;;8.90;99.30;;;;;;5098251;28;20027;-82
2021/12/17 15:38:46;;;;;;;6.45;3.33;;;8.90;99.40;;;;;;5098810;28;20023;-82
2021/12/17 15:41:12;;;;;;;6.22;3.42;;;8.90;99.10;;;;;;5097766;28;20047;-82
2021/12/17 15:43:38;;;;;;;6.60;3.08;;;8.90;99.20;;;;;;5098268;28;20457;-82
2021/12/17 15:46:04;;;;;;;7.43;3.40;;;8.90;99.20;;;;;;5098552;28;20035;-83
2021/12/17 15:48:29;;;;;;;6.57;3.25;;;8.90;99.20;;;;;;5119069;28;20019;-81
2021/12/17 15:50:55;;;;;;;5.18;3.67;;;8.90;99.00;;;;;;5102269;28;20118;-82
2021/12/17 15:53:21;;;;;;;5.10;3.05;;;8.80;99.20;;;;;;5102441;28;20081;-82
2021/12/17 15:55:47;;;;;;;6.30;3.22;;;8.80;99.50;;;;;;5098800;28;20080;-82
2021/12/17 15:58:13;;;;;;;4.82;3.10;;;8.80;99.30;;;;;;5098087;28;20015;-82
2021/12/17 16:00:39;;;;;;;7.53;3.45;;;8.80;99.30;;;;;;5097022;28;20023;-82
2021/12/17 16:03:07;;;;;;;7.40;3.38;;;8.80;99.30;;;;;;5098588;28;20482;-83
2021/12/17 16:05:34;;;;;;;4.95;3.00;;;8.80;99.30;;;;;;5099881;28;20038;-82
2021/12/17 16:08:01;;;;;;;5.68;3.55;;;8.80;99.50;;;;;;5117143;28;20023;-82
2021/12/17 16:18:46;;;;;;;4.93;2.95;;;8.60;99.20;;;;;;5117598;28;20031;-82